Latest Weather Observations for Adele Island

IDW60801

Issued at 4:03 am WST Friday 29 July 2016 (issued every 30 minutes, with the page automatically refreshed every 10 minutes)

About weather observations | Map of weather stations | Latest weather observations for WA | Other Formats
Station Details ID: 200735 Name: ADELE ISLAND Lat: -15.51 Lon: 123.16 Height: 4.6 m
Data from the previous 72 hours. | See also: Recent months at Adele Island
Date/Time
WST
Temp
°C
App
Temp
°C
Dew
Point
°C
Rel
Hum
%
Delta-T
°C
Wind Press
QNH
hPa
Press
MSL
hPa
Rain since
9am
mm
Dir  Spd
km/h
Gust
km/h
Spd
kts
Gust
kts
29/04:00am - - - - - S 11 13 6 7 1014.7 1014.6 -
29/03:30am - - - - - S 9 11 5 6 1014.8 1014.7 -
29/03:00am - - - - - SSW 9 11 5 6 1014.8 1014.7 -
29/02:30am - - - - - SSW 13 17 7 9 1014.7 1014.6 -
29/02:00am - - - - - SW 17 19 9 10 1014.8 1014.7 -
29/01:30am - - - - - SW 13 15 7 8 1015.3 1015.2 -
29/01:00am - - - - - SW 13 15 7 8 1015.5 1015.4 -
29/12:30am - - - - - SW 11 13 6 7 1015.6 1015.5 -
29/12:00am - - - - - SW 13 15 7 8 1015.7 1015.6 -
 
Date/Time
WST
Temp
°C
App
Temp
°C
Dew
Point
°C
Rel
Hum
%
Delta-T
°C
Wind Press
QNH
hPa
Press
MSL
hPa
Rain since
9am
mm
Dir  Spd
km/h
Gust
km/h
Spd
kts
Gust
kts
28/11:30pm - - - - - WSW 9 11 5 6 1015.7 1015.6 -
28/11:00pm - - - - - WSW 11 13 6 7 1015.5 1015.4 -
28/10:30pm - - - - - WSW 11 11 6 6 1015.7 1015.6 -
28/10:00pm - - - - - SW 7 9 4 5 1015.9 1015.8 -
28/09:30pm - - - - - SW 7 9 4 5 1016.1 1016.0 -
28/09:00pm - - - - - SSW 7 9 4 5 1016.1 1016.0 -
28/08:30pm - - - - - CALM 0 0 0 0 1016.0 1015.9 -
28/08:00pm - - - - - SSW 2 6 1 3 1015.8 1015.7 -
28/07:30pm - - - - - ESE 6 6 3 3 1015.6 1015.5 -
28/07:00pm - - - - - ESE 4 6 2 3 1015.4 1015.3 -
28/06:30pm - - - - - ESE 6 7 3 4 1015.1 1015.0 -
28/06:00pm - - - - - E 6 7 3 4 1014.9 1014.8 -
28/05:30pm - - - - - ESE 7 9 4 5 1014.8 1014.7 -
28/05:00pm - - - - - ESE 9 13 5 7 1014.7 1014.6 -
28/04:30pm - - - - - ESE 11 13 6 7 1014.6 1014.5 -
28/04:00pm - - - - - E 13 17 7 9 1014.4 1014.3 -
28/03:30pm - - - - - E 13 17 7 9 1014.2 1014.1 -
28/03:00pm - - - - - E 15 19 8 10 1014.3 1014.2 -
28/02:30pm - - - - - ESE 17 20 9 11 1014.3 1014.2 -
28/02:00pm - - - - - ESE 17 20 9 11 1014.5 1014.4 -
28/01:30pm - - - - - ESE 19 22 10 12 1014.8 1014.7 -
28/01:00pm - - - - - E 19 28 10 15 1015.1 1015.0 -
28/12:30pm - - - - - E 22 28 12 15 1015.5 1015.4 -
28/12:00pm - - - - - E 24 32 13 17 1016.0 1015.9 -
28/11:30am - - - - - E 28 33 15 18 1016.3 1016.2 -
28/11:00am - - - - - E 28 35 15 19 1016.8 1016.7 -
28/10:30am - - - - - E 30 37 16 20 1017.0 1016.9 -
28/10:00am - - - - - E 30 35 16 19 1017.2 1017.1 -
28/09:30am - - - - - E 28 35 15 19 1017.4 1017.3 -
28/09:00am - - - - - E 20 26 11 14 1017.3 1017.2 -
28/08:30am - - - - - ESE 17 22 9 12 1017.2 1017.1 -
28/08:00am - - - - - ESE 17 20 9 11 1017.1 1017.0 -
28/07:30am - - - - - ESE 13 19 7 10 1016.9 1016.8 -
28/07:00am - - - - - ESE 17 20 9 11 1016.8 1016.7 -
28/06:30am - - - - - ESE 15 20 8 11 1016.5 1016.4 -
28/06:00am - - - - - SE 9 13 5 7 1016.4 1016.3 -
28/05:30am - - - - - SE 11 13 6 7 1016.0 1015.9 -
28/05:00am - - - - - SSE 7 9 4 5 1015.7 1015.6 -
28/04:30am - - - - - SSE 4 6 2 3 1015.4 1015.3 -
28/04:00am - - - - - CALM 0 0 0 0 1015.4 1015.3 -
28/03:30am - - - - - CALM 0 0 0 0 1015.3 1015.2 -
28/03:00am - - - - - SSE 6 6 3 3 1015.2 1015.1 -
28/02:30am - - - - - SSE 7 7 4 4 1015.2 1015.1 -
28/02:00am - - - - - CALM 0 2 0 1 1015.2 1015.1 -
28/01:30am - - - - - SE 6 6 3 3 1015.3 1015.2 -
28/01:00am - - - - - CALM 0 2 0 1 1015.5 1015.4 -
28/12:30am - - - - - CALM 0 2 0 1 1015.5 1015.4 -
28/12:00am - - - - - CALM 0 2 0 1 1015.5 1015.4 -
 
Date/Time
WST
Temp
°C
App
Temp
°C
Dew
Point
°C
Rel
Hum
%
Delta-T
°C
Wind Press
QNH
hPa
Press
MSL
hPa
Rain since
9am
mm
Dir  Spd
km/h
Gust
km/h
Spd
kts
Gust
kts
27/11:30pm - - - - - CALM 0 4 0 2 1015.6 1015.5 -
27/11:00pm - - - - - CALM 0 2 0 1 1015.7 1015.6 -
27/10:30pm - - - - - CALM 0 4 0 2 1015.7 1015.6 -
27/10:00pm - - - - - CALM 0 4 0 2 1015.7 1015.6 -
27/09:30pm - - - - - CALM 0 0 0 0 1015.8 1015.7 -
27/09:00pm - - - - - CALM 0 4 0 2 1015.7 1015.6 -
27/08:30pm - - - - - CALM 0 2 0 1 1015.6 1015.5 -
27/08:00pm - - - - - CALM 0 4 0 2 1015.4 1015.3 -
27/07:30pm - - - - - N 2 9 1 5 1015.1 1015.0 -
27/07:00pm - - - - - CALM 0 4 0 2 1014.6 1014.5 -
27/06:30pm - - - - - CALM 0 4 0 2 1014.3 1014.2 -
27/06:00pm - - - - - CALM 0 4 0 2 1014.1 1014.0 -
27/05:30pm - - - - - NE 6 7 3 4 1013.7 1013.6 -
27/05:00pm - - - - - NE 7 9 4 5 1013.4 1013.3 -
27/04:30pm - - - - - NNE 9 11 5 6 1013.3 1013.2 -
27/04:00pm - - - - - NNE 9 11 5 6 1013.3 1013.2 -
27/03:30pm - - - - - NNE 11 15 6 8 1013.1 1013.0 -
27/03:00pm - - - - - ENE 13 17 7 9 1013.0 1012.9 -
27/02:30pm - - - - - ENE 15 17 8 9 1013.2 1013.1 -
27/02:00pm - - - - - NE 15 20 8 11 1013.3 1013.2 -
27/01:30pm - - - - - ENE 17 20 9 11 1013.3 1013.2 -
27/01:00pm - - - - - ENE 20 24 11 13 1013.7 1013.6 -
27/12:30pm - - - - - ENE 22 28 12 15 1013.9 1013.8 -
27/12:00pm - - - - - ENE 20 26 11 14 1014.1 1014.0 -
27/11:30am - - - - - ENE 17 22 9 12 1014.3 1014.2 -
27/11:00am - - - - - ENE 20 24 11 13 1014.6 1014.5 -
27/10:30am - - - - - NE 20 26 11 14 1014.9 1014.8 -
27/10:00am - - - - - NE 19 24 10 13 1015.1 1015.0 -
27/09:30am - - - - - NE 19 22 10 12 1015.2 1015.1 -
27/09:00am - - - - - NNE 13 17 7 9 1015.1 1015.0 -
27/08:30am - - - - - NNE 13 15 7 8 1014.9 1014.8 -
27/08:00am - - - - - NNE 9 11 5 6 1014.7 1014.6 -
27/07:30am - - - - - ENE 11 15 6 8 1014.6 1014.5 -
27/07:00am - - - - - ENE 11 13 6 7 1014.4 1014.3 -
27/06:30am - - - - - E 13 15 7 8 1014.2 1014.1 -
27/06:00am - - - - - ESE 9 11 5 6 1014.1 1014.0 -
27/05:30am - - - - - ESE 9 11 5 6 1013.7 1013.6 -
27/05:00am - - - - - SSE 4 7 2 4 1013.3 1013.2 -
27/04:30am - - - - - SSE 6 9 3 5 1013.1 1013.0 -
27/04:00am - - - - - SSE 7 7 4 4 1013.0 1012.9 -
27/03:30am - - - - - SSE 6 9 3 5 1012.8 1012.7 -
27/03:00am - - - - - S 6 7 3 4 1012.7 1012.6 -
27/02:30am - - - - - S 6 7 3 4 1012.7 1012.6 -
27/02:00am - - - - - CALM 0 0 0 0 1012.8 1012.7 -
27/01:30am - - - - - CALM 0 0 0 0 1012.9 1012.8 -
27/01:00am - - - - - CALM 0 4 0 2 1013.2 1013.1 -
27/12:30am - - - - - SW 6 7 3 4 1013.3 1013.2 -
27/12:00am - - - - - SW 7 9 4 5 1013.4 1013.3 -
 
Date/Time
WST
Temp
°C
App
Temp
°C
Dew
Point
°C
Rel
Hum
%
Delta-T
°C
Wind Press
QNH
hPa
Press
MSL
hPa
Rain since
9am
mm
Dir  Spd
km/h
Gust
km/h
Spd
kts
Gust
kts
26/11:30pm - - - - - SW 9 9 5 5 1013.5 1013.4 -
26/11:00pm - - - - - SW 9 9 5 5 1013.6 1013.5 -
26/10:30pm - - - - - SSW 9 9 5 5 1013.6 1013.5 -
26/10:00pm - - - - - SSW 9 11 5 6 1013.8 1013.7 -
26/09:30pm - - - - - SSW 11 11 6 6 1013.8 1013.7 -
26/09:00pm - - - - - SSW 11 13 6 7 1013.8 1013.7 -
26/08:30pm - - - - - SSW 11 13 6 7 1013.8 1013.7 -
26/08:00pm - - - - - SSW 9 11 5 6 1013.6 1013.5 -
26/07:30pm - - - - - SSE 4 6 2 3 1013.4 1013.3 -
26/07:00pm - - - - - CALM 0 2 0 1 1013.2 1013.1 -
26/06:30pm - - - - - CALM 0 4 0 2 1012.9 1012.8 -
26/06:00pm - - - - - SE 4 6 2 3 1012.7 1012.6 -
26/05:30pm - - - - - SE 7 7 4 4 1012.4 1012.3 -
26/05:00pm - - - - - E 11 13 6 7 1012.1 1012.0 -
26/04:30pm - - - - - ESE 13 15 7 8 1011.9 1011.8 -
26/04:00pm - - - - - ESE 13 17 7 9 1011.8 1011.7 -
26/03:30pm - - - - - ESE 17 20 9 11 1011.7 1011.6 -
26/03:00pm - - - - - ESE 17 20 9 11 1011.5 1011.4 -
26/02:30pm - - - - - SE 17 20 9 11 1011.6 1011.5 -
26/02:00pm - - - - - SE 17 22 9 12 1011.7 1011.6 -
26/01:30pm - - - - - SE 17 20 9 11 1011.8 1011.7 -
26/01:00pm - - - - - ENE 15 17 8 9 1011.9 1011.8 -
26/12:30pm - - - - - E 15 19 8 10 1012.3 1012.2 -
26/12:00pm - - - - - E 17 22 9 12 1012.8 1012.7 -
26/11:30am - - - - - ESE 19 24 10 13 1013.2 1013.1 -
26/11:00am - - - - - ESE 20 26 11 14 1013.7 1013.6 -
26/10:30am - - - - - SE 20 28 11 15 1014.0 1013.9 -
26/10:00am - - - - - SE 22 26 12 14 1014.2 1014.1 -
26/09:30am - - - - - ESE 20 26 11 14 1014.4 1014.3 -
26/09:00am - - - - - SE 20 24 11 13 1014.4 1014.3 -
26/08:30am - - - - - SE 20 24 11 13 1014.3 1014.2 -
26/08:00am - - - - - ESE 19 24 10 13 1014.1 1014.0 -
26/07:30am - - - - - ESE 15 17 8 9 1013.9 1013.8 -
26/07:00am - - - - - SSE 15 17 8 9 1013.8 1013.7 -
26/06:30am - - - - - SSE 17 19 9 10 1013.7 1013.6 -
26/06:00am - - - - - S 13 15 7 8 1013.4 1013.3 -
26/05:30am - - - - - S 13 13 7 7 1013.2 1013.1 -
26/05:00am - - - - - S 15 15 8 8 1012.9 1012.8 -
26/04:30am - - - - - S 13 15 7 8 1012.7 1012.6 -

Other Formats:

Comma delimited format used in spreadsheet applications
http://www.bom.gov.au/fwo/IDW60801/IDW60801.94210.axf

JavaScript Object Notation format (JSON) in row-major order
http://www.bom.gov.au/fwo/IDW60801/IDW60801.94210.json